sensor_id;sensor_type;location;lat;lon;timestamp;P1;durP1;ratioP1;P2;durP2;ratioP2
2061;SDS011;11070;51.336;12.340;2023-05-20T00:00:31;10.60;;;9.67;;
2061;SDS011;11070;51.336;12.340;2023-05-20T00:02:57;10.27;;;9.27;;
2061;SDS011;11070;51.336;12.340;2023-05-20T00:05:24;11.63;;;9.77;;
2061;SDS011;11070;51.336;12.340;2023-05-20T00:07:50;13.20;;;9.73;;
2061;SDS011;11070;51.336;12.340;2023-05-20T00:10:16;10.00;;;9.00;;
2061;SDS011;11070;51.336;12.340;2023-05-20T00:12:42;11.43;;;10.23;;
2061;SDS011;11070;51.336;12.340;2023-05-20T00:15:08;11.50;;;10.27;;
2061;SDS011;11070;51.336;12.340;2023-05-20T00:17:35;10.77;;;9.68;;
2061;SDS011;11070;51.336;12.340;2023-05-20T00:20:01;10.87;;;9.87;;
2061;SDS011;11070;51.336;12.340;2023-05-20T00:22:29;11.30;;;10.20;;
2061;SDS011;11070;51.336;12.340;2023-05-20T00:24:55;11.60;;;10.50;;
2061;SDS011;11070;51.336;12.340;2023-05-20T00:27:20;11.50;;;10.40;;
2061;SDS011;11070;51.336;12.340;2023-05-20T00:29:46;11.00;;;9.90;;
2061;SDS011;11070;51.336;12.340;2023-05-20T00:32:12;11.47;;;10.40;;
2061;SDS011;11070;51.336;12.340;2023-05-20T00:34:38;11.48;;;10.38;;
2061;SDS011;11070;51.336;12.340;2023-05-20T00:37:03;10.60;;;9.60;;
2061;SDS011;11070;51.336;12.340;2023-05-20T00:39:30;11.00;;;9.13;;
2061;SDS011;11070;51.336;12.340;2023-05-20T00:41:58;10.80;;;9.70;;
2061;SDS011;11070;51.336;12.340;2023-05-20T00:44:26;13.38;;;10.55;;
2061;SDS011;11070;51.336;12.340;2023-05-20T00:46:52;11.07;;;10.07;;
2061;SDS011;11070;51.336;12.340;2023-05-20T00:49:19;11.98;;;10.75;;
2061;SDS011;11070;51.336;12.340;2023-05-20T00:51:46;11.70;;;10.57;;
2061;SDS011;11070;51.336;12.340;2023-05-20T00:54:12;11.73;;;10.53;;
2061;SDS011;11070;51.336;12.340;2023-05-20T00:56:37;13.23;;;11.43;;
2061;SDS011;11070;51.336;12.340;2023-05-20T00:59:03;11.57;;;10.47;;
2061;SDS011;11070;51.336;12.340;2023-05-20T01:01:30;12.82;;;11.48;;
2061;SDS011;11070;51.336;12.340;2023-05-20T01:03:55;11.33;;;10.23;;
2061;SDS011;11070;51.336;12.340;2023-05-20T01:06:21;11.53;;;10.37;;
2061;SDS011;11070;51.336;12.340;2023-05-20T01:08:47;12.57;;;11.00;;
2061;SDS011;11070;51.336;12.340;2023-05-20T01:11:35;14.00;;;10.63;;
2061;SDS011;11070;51.336;12.340;2023-05-20T01:14:02;12.30;;;11.10;;
2061;SDS011;11070;51.336;12.340;2023-05-20T01:16:31;11.85;;;10.65;;
2061;SDS011;11070;51.336;12.340;2023-05-20T01:18:59;12.30;;;11.02;;
2061;SDS011;11070;51.336;12.340;2023-05-20T01:21:29;13.65;;;12.15;;
2061;SDS011;11070;51.336;12.340;2023-05-20T01:23:55;12.60;;;11.30;;
2061;SDS011;11070;51.336;12.340;2023-05-20T01:26:21;14.43;;;11.90;;
2061;SDS011;11070;51.336;12.340;2023-05-20T01:28:51;12.05;;;10.38;;
2061;SDS011;11070;51.336;12.340;2023-05-20T01:31:19;15.70;;;13.07;;
2061;SDS011;11070;51.336;12.340;2023-05-20T01:33:54;11.98;;;10.77;;
2061;SDS011;11070;51.336;12.340;2023-05-20T01:36:22;12.30;;;11.00;;
2061;SDS011;11070;51.336;12.340;2023-05-20T01:38:50;12.70;;;11.40;;
2061;SDS011;11070;51.336;12.340;2023-05-20T01:41:17;13.05;;;10.73;;
2061;SDS011;11070;51.336;12.340;2023-05-20T01:43:44;12.13;;;10.82;;
2061;SDS011;11070;51.336;12.340;2023-05-20T01:46:10;15.25;;;11.73;;
2061;SDS011;11070;51.336;12.340;2023-05-20T01:48:36;12.13;;;10.97;;
2061;SDS011;11070;51.336;12.340;2023-05-20T01:51:02;13.00;;;11.63;;
2061;SDS011;11070;51.336;12.340;2023-05-20T01:53:28;13.00;;;11.47;;
2061;SDS011;11070;51.336;12.340;2023-05-20T01:55:53;14.53;;;11.60;;
2061;SDS011;11070;51.336;12.340;2023-05-20T01:58:19;13.67;;;12.17;;
2061;SDS011;11070;51.336;12.340;2023-05-20T02:00:45;13.53;;;11.67;;
2061;SDS011;11070;51.336;12.340;2023-05-20T02:03:10;13.13;;;11.83;;
2061;SDS011;11070;51.336;12.340;2023-05-20T02:05:36;13.37;;;11.97;;
2061;SDS011;11070;51.336;12.340;2023-05-20T02:08:02;15.10;;;11.97;;
2061;SDS011;11070;51.336;12.340;2023-05-20T02:10:27;14.10;;;12.60;;
2061;SDS011;11070;51.336;12.340;2023-05-20T02:12:53;14.20;;;12.50;;
2061;SDS011;11070;51.336;12.340;2023-05-20T02:15:19;13.43;;;11.80;;
2061;SDS011;11070;51.336;12.340;2023-05-20T02:17:45;17.00;;;12.70;;
2061;SDS011;11070;51.336;12.340;2023-05-20T02:20:11;18.77;;;14.47;;
2061;SDS011;11070;51.336;12.340;2023-05-20T02:22:38;17.85;;;13.27;;
2061;SDS011;11070;51.336;12.340;2023-05-20T02:25:03;15.17;;;12.13;;
2061;SDS011;11070;51.336;12.340;2023-05-20T02:27:30;14.65;;;12.25;;
2061;SDS011;11070;51.336;12.340;2023-05-20T02:29:55;14.60;;;13.03;;
2061;SDS011;11070;51.336;12.340;2023-05-20T02:32:21;15.73;;;13.73;;
2061;SDS011;11070;51.336;12.340;2023-05-20T02:34:52;20.55;;;14.70;;
2061;SDS011;11070;51.336;12.340;2023-05-20T02:37:18;20.52;;;15.68;;
2061;SDS011;11070;51.336;12.340;2023-05-20T02:39:44;17.00;;;13.93;;
2061;SDS011;11070;51.336;12.340;2023-05-20T02:42:10;17.77;;;15.60;;
2061;SDS011;11070;51.336;12.340;2023-05-20T02:44:36;17.80;;;15.90;;
2061;SDS011;11070;51.336;12.340;2023-05-20T02:47:01;22.03;;;17.20;;
2061;SDS011;11070;51.336;12.340;2023-05-20T02:49:27;18.03;;;16.10;;
2061;SDS011;11070;51.336;12.340;2023-05-20T02:51:53;20.47;;;16.00;;
2061;SDS011;11070;51.336;12.340;2023-05-20T02:54:18;18.90;;;16.53;;
2061;SDS011;11070;51.336;12.340;2023-05-20T02:56:44;23.10;;;17.23;;
2061;SDS011;11070;51.336;12.340;2023-05-20T02:59:10;19.83;;;15.57;;
2061;SDS011;11070;51.336;12.340;2023-05-20T03:01:36;19.70;;;15.65;;
2061;SDS011;11070;51.336;12.340;2023-05-20T03:04:01;19.77;;;16.27;;
2061;SDS011;11070;51.336;12.340;2023-05-20T03:06:27;17.93;;;15.73;;
2061;SDS011;11070;51.336;12.340;2023-05-20T03:08:54;22.00;;;16.73;;
2061;SDS011;11070;51.336;12.340;2023-05-20T03:11:20;22.08;;;16.60;;
2061;SDS011;11070;51.336;12.340;2023-05-20T03:13:46;20.50;;;16.97;;
2061;SDS011;11070;51.336;12.340;2023-05-20T03:16:11;20.33;;;16.57;;
2061;SDS011;11070;51.336;12.340;2023-05-20T03:18:37;22.10;;;17.17;;
2061;SDS011;11070;51.336;12.340;2023-05-20T03:21:03;22.10;;;18.38;;
2061;SDS011;11070;51.336;12.340;2023-05-20T03:23:29;21.50;;;17.67;;
2061;SDS011;11070;51.336;12.340;2023-05-20T03:25:54;23.03;;;18.93;;
2061;SDS011;11070;51.336;12.340;2023-05-20T03:28:20;26.73;;;18.70;;
2061;SDS011;11070;51.336;12.340;2023-05-20T03:30:46;20.73;;;18.20;;
2061;SDS011;11070;51.336;12.340;2023-05-20T03:33:11;20.70;;;17.17;;
2061;SDS011;11070;51.336;12.340;2023-05-20T03:35:37;22.43;;;17.93;;
2061;SDS011;11070;51.336;12.340;2023-05-20T03:38:03;22.10;;;18.13;;
2061;SDS011;11070;51.336;12.340;2023-05-20T03:40:28;21.60;;;17.70;;
2061;SDS011;11070;51.336;12.340;2023-05-20T03:42:54;22.83;;;17.57;;
2061;SDS011;11070;51.336;12.340;2023-05-20T03:45:20;21.73;;;18.07;;
2061;SDS011;11070;51.336;12.340;2023-05-20T03:47:45;21.00;;;17.57;;
2061;SDS011;11070;51.336;12.340;2023-05-20T03:50:11;23.63;;;18.90;;
2061;SDS011;11070;51.336;12.340;2023-05-20T03:52:37;21.97;;;17.80;;
2061;SDS011;11070;51.336;12.340;2023-05-20T03:55:02;23.50;;;18.73;;
2061;SDS011;11070;51.336;12.340;2023-05-20T03:57:28;21.50;;;18.63;;
2061;SDS011;11070;51.336;12.340;2023-05-20T03:59:54;23.87;;;19.23;;
2061;SDS011;11070;51.336;12.340;2023-05-20T04:02:20;21.17;;;18.03;;
2061;SDS011;11070;51.336;12.340;2023-05-20T04:04:45;22.27;;;18.90;;
2061;SDS011;11070;51.336;12.340;2023-05-20T04:07:11;23.20;;;18.67;;
2061;SDS011;11070;51.336;12.340;2023-05-20T04:09:37;24.60;;;17.43;;
2061;SDS011;11070;51.336;12.340;2023-05-20T04:12:03;20.33;;;17.88;;
2061;SDS011;11070;51.336;12.340;2023-05-20T04:14:30;21.40;;;18.25;;
2061;SDS011;11070;51.336;12.340;2023-05-20T04:16:58;19.40;;;17.13;;
2061;SDS011;11070;51.336;12.340;2023-05-20T04:19:23;19.37;;;17.03;;
2061;SDS011;11070;51.336;12.340;2023-05-20T04:21:52;22.60;;;17.95;;
2061;SDS011;11070;51.336;12.340;2023-05-20T04:24:17;22.20;;;18.07;;
2061;SDS011;11070;51.336;12.340;2023-05-20T04:26:43;20.20;;;16.27;;
2061;SDS011;11070;51.336;12.340;2023-05-20T04:29:09;21.93;;;18.10;;
2061;SDS011;11070;51.336;12.340;2023-05-20T04:31:35;23.83;;;18.40;;
2061;SDS011;11070;51.336;12.340;2023-05-20T04:34:02;20.10;;;17.23;;
2061;SDS011;11070;51.336;12.340;2023-05-20T04:36:29;20.40;;;16.70;;
2061;SDS011;11070;51.336;12.340;2023-05-20T04:38:54;20.90;;;17.15;;
2061;SDS011;11070;51.336;12.340;2023-05-20T04:41:21;21.65;;;17.70;;
2061;SDS011;11070;51.336;12.340;2023-05-20T04:43:47;20.10;;;16.00;;
2061;SDS011;11070;51.336;12.340;2023-05-20T04:46:13;18.83;;;16.83;;
2061;SDS011;11070;51.336;12.340;2023-05-20T04:48:40;19.63;;;16.55;;
2061;SDS011;11070;51.336;12.340;2023-05-20T04:51:07;20.80;;;17.67;;
2061;SDS011;11070;51.336;12.340;2023-05-20T04:53:33;19.17;;;16.45;;
2061;SDS011;11070;51.336;12.340;2023-05-20T04:56:00;19.92;;;17.33;;
2061;SDS011;11070;51.336;12.340;2023-05-20T04:58:25;19.70;;;17.27;;
2061;SDS011;11070;51.336;12.340;2023-05-20T05:00:53;20.40;;;16.73;;
2061;SDS011;11070;51.336;12.340;2023-05-20T05:03:20;20.80;;;16.75;;
2061;SDS011;11070;51.336;12.340;2023-05-20T05:05:46;19.65;;;16.80;;
2061;SDS011;11070;51.336;12.340;2023-05-20T05:08:12;19.70;;;17.17;;
2061;SDS011;11070;51.336;12.340;2023-05-20T05:10:38;20.23;;;16.70;;
2061;SDS011;11070;51.336;12.340;2023-05-20T05:13:04;19.98;;;16.90;;
2061;SDS011;11070;51.336;12.340;2023-05-20T05:15:29;22.93;;;18.20;;
2061;SDS011;11070;51.336;12.340;2023-05-20T05:17:55;25.17;;;18.53;;
2061;SDS011;11070;51.336;12.340;2023-05-20T05:20:21;20.90;;;17.47;;
2061;SDS011;11070;51.336;12.340;2023-05-20T05:22:47;20.07;;;17.03;;
2061;SDS011;11070;51.336;12.340;2023-05-20T05:25:14;22.55;;;18.23;;
2061;SDS011;11070;51.336;12.340;2023-05-20T05:27:40;21.85;;;17.67;;
2061;SDS011;11070;51.336;12.340;2023-05-20T05:30:06;20.88;;;16.80;;
2061;SDS011;11070;51.336;12.340;2023-05-20T05:32:32;18.48;;;15.93;;
2061;SDS011;11070;51.336;12.340;2023-05-20T05:34:58;20.80;;;17.57;;
2061;SDS011;11070;51.336;12.340;2023-05-20T05:37:24;23.20;;;18.37;;
2061;SDS011;11070;51.336;12.340;2023-05-20T05:39:49;19.73;;;17.60;;
2061;SDS011;11070;51.336;12.340;2023-05-20T05:42:15;22.90;;;17.07;;
2061;SDS011;11070;51.336;12.340;2023-05-20T05:44:41;24.10;;;18.20;;
2061;SDS011;11070;51.336;12.340;2023-05-20T05:47:07;21.53;;;17.20;;
2061;SDS011;11070;51.336;12.340;2023-05-20T05:49:32;22.40;;;18.67;;
2061;SDS011;11070;51.336;12.340;2023-05-20T05:51:58;21.90;;;18.13;;
2061;SDS011;11070;51.336;12.340;2023-05-20T05:54:24;26.13;;;18.57;;
2061;SDS011;11070;51.336;12.340;2023-05-20T05:56:50;20.30;;;17.43;;
2061;SDS011;11070;51.336;12.340;2023-05-20T05:59:17;19.35;;;16.70;;
2061;SDS011;11070;51.336;12.340;2023-05-20T06:01:42;21.60;;;18.13;;
2061;SDS011;11070;51.336;12.340;2023-05-20T06:04:08;21.33;;;16.53;;
2061;SDS011;11070;51.336;12.340;2023-05-20T06:06:34;21.37;;;17.10;;
2061;SDS011;11070;51.336;12.340;2023-05-20T06:08:59;20.13;;;16.47;;
2061;SDS011;11070;51.336;12.340;2023-05-20T06:11:25;20.63;;;17.13;;
2061;SDS011;11070;51.336;12.340;2023-05-20T06:13:51;21.17;;;17.73;;
2061;SDS011;11070;51.336;12.340;2023-05-20T06:16:17;21.33;;;17.47;;
2061;SDS011;11070;51.336;12.340;2023-05-20T06:18:42;21.77;;;16.80;;
2061;SDS011;11070;51.336;12.340;2023-05-20T06:21:10;19.63;;;16.52;;
2061;SDS011;11070;51.336;12.340;2023-05-20T06:23:36;20.50;;;16.57;;
2061;SDS011;11070;51.336;12.340;2023-05-20T06:26:01;20.30;;;16.07;;
2061;SDS011;11070;51.336;12.340;2023-05-20T06:28:28;24.00;;;16.90;;
2061;SDS011;11070;51.336;12.340;2023-05-20T06:30:54;20.05;;;17.30;;
2061;SDS011;11070;51.336;12.340;2023-05-20T06:33:24;20.05;;;16.50;;
2061;SDS011;11070;51.336;12.340;2023-05-20T06:35:53;20.27;;;16.90;;
2061;SDS011;11070;51.336;12.340;2023-05-20T06:38:20;19.42;;;16.45;;
2061;SDS011;11070;51.336;12.340;2023-05-20T06:40:46;20.20;;;17.27;;
2061;SDS011;11070;51.336;12.340;2023-05-20T06:43:13;22.58;;;18.30;;
2061;SDS011;11070;51.336;12.340;2023-05-20T06:45:39;20.92;;;16.50;;
2061;SDS011;11070;51.336;12.340;2023-05-20T06:48:06;22.52;;;17.17;;
2061;SDS011;11070;51.336;12.340;2023-05-20T06:50:31;20.42;;;17.17;;
2061;SDS011;11070;51.336;12.340;2023-05-20T06:52:57;21.03;;;17.40;;
2061;SDS011;11070;51.336;12.340;2023-05-20T06:55:23;20.37;;;17.00;;
2061;SDS011;11070;51.336;12.340;2023-05-20T06:57:48;22.63;;;17.93;;
2061;SDS011;11070;51.336;12.340;2023-05-20T07:00:14;22.30;;;17.57;;
2061;SDS011;11070;51.336;12.340;2023-05-20T07:02:40;21.47;;;17.97;;
2061;SDS011;11070;51.336;12.340;2023-05-20T07:05:07;23.80;;;18.58;;
2061;SDS011;11070;51.336;12.340;2023-05-20T07:07:33;22.38;;;18.20;;
2061;SDS011;11070;51.336;12.340;2023-05-20T07:09:59;21.93;;;18.70;;
2061;SDS011;11070;51.336;12.340;2023-05-20T07:12:24;24.37;;;18.47;;
2061;SDS011;11070;51.336;12.340;2023-05-20T07:14:50;22.57;;;18.63;;
2061;SDS011;11070;51.336;12.340;2023-05-20T07:17:16;23.57;;;19.60;;
2061;SDS011;11070;51.336;12.340;2023-05-20T07:19:41;24.43;;;19.87;;
2061;SDS011;11070;51.336;12.340;2023-05-20T07:22:07;23.27;;;19.57;;
2061;SDS011;11070;51.336;12.340;2023-05-20T07:24:34;24.40;;;19.00;;
2061;SDS011;11070;51.336;12.340;2023-05-20T07:27:00;21.05;;;18.60;;
2061;SDS011;11070;51.336;12.340;2023-05-20T07:29:25;23.73;;;19.30;;
2061;SDS011;11070;51.336;12.340;2023-05-20T07:31:51;23.27;;;18.20;;
2061;SDS011;11070;51.336;12.340;2023-05-20T07:34:17;26.20;;;18.77;;
2061;SDS011;11070;51.336;12.340;2023-05-20T07:36:42;24.43;;;19.80;;
2061;SDS011;11070;51.336;12.340;2023-05-20T07:39:08;24.03;;;19.40;;
2061;SDS011;11070;51.336;12.340;2023-05-20T07:41:35;25.38;;;19.80;;
2061;SDS011;11070;51.336;12.340;2023-05-20T07:44:01;24.83;;;19.52;;
2061;SDS011;11070;51.336;12.340;2023-05-20T07:46:28;27.02;;;21.13;;
2061;SDS011;11070;51.336;12.340;2023-05-20T07:48:54;25.20;;;19.33;;
2061;SDS011;11070;51.336;12.340;2023-05-20T07:51:20;24.07;;;19.60;;
2061;SDS011;11070;51.336;12.340;2023-05-20T07:53:46;26.30;;;20.10;;
2061;SDS011;11070;51.336;12.340;2023-05-20T07:56:12;25.98;;;20.13;;
2061;SDS011;11070;51.336;12.340;2023-05-20T07:58:39;24.77;;;19.00;;
2061;SDS011;11070;51.336;12.340;2023-05-20T08:01:05;24.27;;;19.65;;
2061;SDS011;11070;51.336;12.340;2023-05-20T08:03:33;21.15;;;18.15;;
2061;SDS011;11070;51.336;12.340;2023-05-20T08:05:59;22.20;;;18.50;;
2061;SDS011;11070;51.336;12.340;2023-05-20T08:08:25;24.50;;;19.77;;
2061;SDS011;11070;51.336;12.340;2023-05-20T08:10:50;27.30;;;19.83;;
2061;SDS011;11070;51.336;12.340;2023-05-20T08:13:16;23.08;;;19.20;;
2061;SDS011;11070;51.336;12.340;2023-05-20T08:15:42;27.00;;;21.00;;
2061;SDS011;11070;51.336;12.340;2023-05-20T08:18:08;25.50;;;20.30;;
2061;SDS011;11070;51.336;12.340;2023-05-20T08:20:34;22.63;;;18.57;;
2061;SDS011;11070;51.336;12.340;2023-05-20T08:22:59;22.27;;;18.17;;
2061;SDS011;11070;51.336;12.340;2023-05-20T08:25:25;22.47;;;18.40;;
2061;SDS011;11070;51.336;12.340;2023-05-20T08:27:51;27.37;;;20.60;;
2061;SDS011;11070;51.336;12.340;2023-05-20T08:30:16;20.30;;;17.93;;
2061;SDS011;11070;51.336;12.340;2023-05-20T08:32:42;21.20;;;18.77;;
2061;SDS011;11070;51.336;12.340;2023-05-20T08:35:08;22.20;;;18.37;;
2061;SDS011;11070;51.336;12.340;2023-05-20T08:37:34;22.23;;;18.85;;
2061;SDS011;11070;51.336;12.340;2023-05-20T08:39:59;21.97;;;18.90;;
2061;SDS011;11070;51.336;12.340;2023-05-20T08:42:25;23.37;;;18.50;;
2061;SDS011;11070;51.336;12.340;2023-05-20T08:44:51;22.50;;;17.80;;
2061;SDS011;11070;51.336;12.340;2023-05-20T08:47:21;24.00;;;18.55;;
2061;SDS011;11070;51.336;12.340;2023-05-20T08:49:47;23.35;;;17.80;;
2061;SDS011;11070;51.336;12.340;2023-05-20T08:52:13;20.42;;;17.70;;
2061;SDS011;11070;51.336;12.340;2023-05-20T08:54:45;19.85;;;16.65;;
2061;SDS011;11070;51.336;12.340;2023-05-20T08:57:13;19.58;;;16.60;;
2061;SDS011;11070;51.336;12.340;2023-05-20T08:59:42;21.70;;;16.95;;
2061;SDS011;11070;51.336;12.340;2023-05-20T09:02:09;20.10;;;17.87;;
2061;SDS011;11070;51.336;12.340;2023-05-20T09:04:36;19.80;;;17.70;;
2061;SDS011;11070;51.336;12.340;2023-05-20T09:07:02;20.45;;;18.23;;
2061;SDS011;11070;51.336;12.340;2023-05-20T09:09:28;23.33;;;18.20;;
2061;SDS011;11070;51.336;12.340;2023-05-20T09:11:54;19.83;;;17.67;;
2061;SDS011;11070;51.336;12.340;2023-05-20T09:14:20;19.07;;;16.83;;
2061;SDS011;11070;51.336;12.340;2023-05-20T09:16:49;20.10;;;17.57;;
2061;SDS011;11070;51.336;12.340;2023-05-20T09:19:15;22.00;;;17.70;;
2061;SDS011;11070;51.336;12.340;2023-05-20T09:21:41;19.93;;;16.80;;
2061;SDS011;11070;51.336;12.340;2023-05-20T09:24:07;21.50;;;17.67;;
2061;SDS011;11070;51.336;12.340;2023-05-20T09:26:33;18.40;;;16.47;;
2061;SDS011;11070;51.336;12.340;2023-05-20T09:28:59;19.73;;;17.33;;
2061;SDS011;11070;51.336;12.340;2023-05-20T09:31:29;20.87;;;18.00;;
2061;SDS011;11070;51.336;12.340;2023-05-20T09:33:58;20.83;;;17.52;;
2061;SDS011;11070;51.336;12.340;2023-05-20T09:36:25;21.42;;;18.10;;
2061;SDS011;11070;51.336;12.340;2023-05-20T09:38:53;20.35;;;18.15;;
2061;SDS011;11070;51.336;12.340;2023-05-20T09:41:28;20.73;;;18.25;;
2061;SDS011;11070;51.336;12.340;2023-05-20T09:43:59;21.70;;;18.23;;
2061;SDS011;11070;51.336;12.340;2023-05-20T09:46:26;24.52;;;18.45;;
2061;SDS011;11070;51.336;12.340;2023-05-20T09:48:52;22.02;;;19.20;;
2061;SDS011;11070;51.336;12.340;2023-05-20T09:51:18;23.20;;;19.00;;
2061;SDS011;11070;51.336;12.340;2023-05-20T09:53:46;21.00;;;18.17;;
2061;SDS011;11070;51.336;12.340;2023-05-20T09:56:12;22.63;;;18.60;;
2061;SDS011;11070;51.336;12.340;2023-05-20T09:58:38;22.27;;;19.52;;
2061;SDS011;11070;51.336;12.340;2023-05-20T10:01:06;20.55;;;18.35;;
2061;SDS011;11070;51.336;12.340;2023-05-20T10:03:31;27.33;;;19.40;;
2061;SDS011;11070;51.336;12.340;2023-05-20T10:09:07;25.87;;;19.50;;
2061;SDS011;11070;51.336;12.340;2023-05-20T10:22:03;18.70;;;16.70;;
2061;SDS011;11070;51.336;12.340;2023-05-20T10:27:07;17.90;;;16.10;;
2061;SDS011;11070;51.336;12.340;2023-05-20T10:32:26;19.70;;;17.70;;
2061;SDS011;11070;51.336;12.340;2023-05-20T10:34:57;19.88;;;17.85;;
2061;SDS011;11070;51.336;12.340;2023-05-20T10:37:40;20.65;;;17.83;;
2061;SDS011;11070;51.336;12.340;2023-05-20T10:40:10;19.92;;;17.73;;
2061;SDS011;11070;51.336;12.340;2023-05-20T10:42:39;19.40;;;17.17;;
2061;SDS011;11070;51.336;12.340;2023-05-20T10:45:07;21.63;;;18.77;;
2061;SDS011;11070;51.336;12.340;2023-05-20T10:47:33;19.83;;;17.83;;
2061;SDS011;11070;51.336;12.340;2023-05-20T10:50:00;20.90;;;18.50;;
2061;SDS011;11070;51.336;12.340;2023-05-20T10:52:31;20.13;;;17.37;;
2061;SDS011;11070;51.336;12.340;2023-05-20T10:54:58;21.10;;;18.90;;
2061;SDS011;11070;51.336;12.340;2023-05-20T10:57:25;20.47;;;18.10;;
2061;SDS011;11070;51.336;12.340;2023-05-20T10:59:52;19.63;;;17.53;;
2061;SDS011;11070;51.336;12.340;2023-05-20T11:02:18;19.10;;;17.20;;
2061;SDS011;11070;51.336;12.340;2023-05-20T11:04:50;21.90;;;19.17;;
2061;SDS011;11070;51.336;12.340;2023-05-20T11:07:23;18.33;;;16.50;;
2061;SDS011;11070;51.336;12.340;2023-05-20T11:09:53;20.77;;;16.90;;
2061;SDS011;11070;51.336;12.340;2023-05-20T11:12:23;18.43;;;16.53;;
2061;SDS011;11070;51.336;12.340;2023-05-20T11:14:49;18.10;;;16.30;;
2061;SDS011;11070;51.336;12.340;2023-05-20T11:17:15;18.53;;;16.37;;
2061;SDS011;11070;51.336;12.340;2023-05-20T11:19:44;19.13;;;17.10;;
2061;SDS011;11070;51.336;12.340;2023-05-20T11:22:10;17.30;;;15.50;;
2061;SDS011;11070;51.336;12.340;2023-05-20T11:24:36;19.77;;;16.43;;
2061;SDS011;11070;51.336;12.340;2023-05-20T11:27:02;18.93;;;16.93;;
2061;SDS011;11070;51.336;12.340;2023-05-20T11:29:28;19.73;;;17.80;;
2061;SDS011;11070;51.336;12.340;2023-05-20T11:31:56;18.20;;;16.30;;
2061;SDS011;11070;51.336;12.340;2023-05-20T11:34:23;18.33;;;16.33;;
2061;SDS011;11070;51.336;12.340;2023-05-20T11:36:55;18.60;;;16.80;;
2061;SDS011;11070;51.336;12.340;2023-05-20T11:39:22;19.40;;;16.77;;
2061;SDS011;11070;51.336;12.340;2023-05-20T11:41:48;17.33;;;15.50;;
2061;SDS011;11070;51.336;12.340;2023-05-20T11:44:14;17.97;;;16.10;;
2061;SDS011;11070;51.336;12.340;2023-05-20T11:46:44;18.57;;;15.20;;
2061;SDS011;11070;51.336;12.340;2023-05-20T11:49:14;16.30;;;14.80;;
2061;SDS011;11070;51.336;12.340;2023-05-20T11:51:41;17.37;;;15.57;;
2061;SDS011;11070;51.336;12.340;2023-05-20T11:54:08;18.03;;;16.17;;
2061;SDS011;11070;51.336;12.340;2023-05-20T11:56:37;17.23;;;15.33;;
2061;SDS011;11070;51.336;12.340;2023-05-20T11:59:05;17.93;;;16.10;;
2061;SDS011;11070;51.336;12.340;2023-05-20T12:01:35;18.33;;;16.00;;
2061;SDS011;11070;51.336;12.340;2023-05-20T12:04:02;18.87;;;16.10;;
2061;SDS011;11070;51.336;12.340;2023-05-20T12:06:29;18.17;;;15.60;;
2061;SDS011;11070;51.336;12.340;2023-05-20T12:08:55;15.70;;;14.20;;
2061;SDS011;11070;51.336;12.340;2023-05-20T12:11:23;16.33;;;14.77;;
2061;SDS011;11070;51.336;12.340;2023-05-20T12:13:49;17.83;;;14.90;;
2061;SDS011;11070;51.336;12.340;2023-05-20T12:16:15;16.33;;;14.20;;
2061;SDS011;11070;51.336;12.340;2023-05-20T12:18:41;16.90;;;15.20;;
2061;SDS011;11070;51.336;12.340;2023-05-20T12:21:06;15.97;;;14.37;;
2061;SDS011;11070;51.336;12.340;2023-05-20T12:23:33;16.67;;;14.87;;
2061;SDS011;11070;51.336;12.340;2023-05-20T12:25:59;16.17;;;14.47;;
2061;SDS011;11070;51.336;12.340;2023-05-20T12:28:25;15.00;;;13.47;;
2061;SDS011;11070;51.336;12.340;2023-05-20T12:30:50;16.40;;;14.67;;
2061;SDS011;11070;51.336;12.340;2023-05-20T12:33:16;17.43;;;14.70;;
2061;SDS011;11070;51.336;12.340;2023-05-20T12:35:44;17.47;;;15.70;;
2061;SDS011;11070;51.336;12.340;2023-05-20T12:38:10;14.90;;;13.37;;
2061;SDS011;11070;51.336;12.340;2023-05-20T12:40:36;17.30;;;15.60;;
2061;SDS011;11070;51.336;12.340;2023-05-20T12:43:02;16.50;;;14.90;;
2061;SDS011;11070;51.336;12.340;2023-05-20T12:45:28;16.20;;;14.60;;
2061;SDS011;11070;51.336;12.340;2023-05-20T12:47:55;16.70;;;15.07;;
2061;SDS011;11070;51.336;12.340;2023-05-20T12:50:21;17.27;;;14.60;;
2061;SDS011;11070;51.336;12.340;2023-05-20T12:52:48;17.47;;;15.43;;
2061;SDS011;11070;51.336;12.340;2023-05-20T12:55:13;18.93;;;15.23;;
2061;SDS011;11070;51.336;12.340;2023-05-20T12:57:39;16.80;;;15.10;;
2061;SDS011;11070;51.336;12.340;2023-05-20T13:00:07;15.70;;;14.10;;
2061;SDS011;11070;51.336;12.340;2023-05-20T13:02:34;17.87;;;16.07;;
2061;SDS011;11070;51.336;12.340;2023-05-20T13:05:00;19.00;;;17.03;;
2061;SDS011;11070;51.336;12.340;2023-05-20T13:07:26;18.20;;;16.17;;
2061;SDS011;11070;51.336;12.340;2023-05-20T13:09:52;18.20;;;15.93;;
2061;SDS011;11070;51.336;12.340;2023-05-20T13:12:17;18.00;;;16.23;;
2061;SDS011;11070;51.336;12.340;2023-05-20T13:14:43;17.07;;;15.37;;
2061;SDS011;11070;51.336;12.340;2023-05-20T13:17:10;24.70;;;17.33;;
2061;SDS011;11070;51.336;12.340;2023-05-20T13:19:36;18.93;;;16.93;;
2061;SDS011;11070;51.336;12.340;2023-05-20T13:22:02;17.50;;;15.80;;
2061;SDS011;11070;51.336;12.340;2023-05-20T13:24:28;17.30;;;15.70;;
2061;SDS011;11070;51.336;12.340;2023-05-20T13:26:54;18.30;;;16.30;;
2061;SDS011;11070;51.336;12.340;2023-05-20T13:29:20;18.50;;;15.80;;
2061;SDS011;11070;51.336;12.340;2023-05-20T13:31:46;18.93;;;15.80;;
2061;SDS011;11070;51.336;12.340;2023-05-20T13:34:12;19.20;;;15.63;;
2061;SDS011;11070;51.336;12.340;2023-05-20T13:36:38;20.90;;;16.27;;
2061;SDS011;11070;51.336;12.340;2023-05-20T13:39:04;18.87;;;16.70;;
2061;SDS011;11070;51.336;12.340;2023-05-20T13:41:30;17.53;;;15.70;;
2061;SDS011;11070;51.336;12.340;2023-05-20T13:43:56;17.00;;;15.23;;
2061;SDS011;11070;51.336;12.340;2023-05-20T13:46:22;18.87;;;16.97;;
2061;SDS011;11070;51.336;12.340;2023-05-20T13:48:48;17.83;;;15.70;;
2061;SDS011;11070;51.336;12.340;2023-05-20T13:51:14;17.53;;;15.73;;
2061;SDS011;11070;51.336;12.340;2023-05-20T13:53:39;16.67;;;14.97;;
2061;SDS011;11070;51.336;12.340;2023-05-20T13:56:05;17.83;;;15.93;;
2061;SDS011;11070;51.336;12.340;2023-05-20T13:58:33;15.17;;;13.73;;
2061;SDS011;11070;51.336;12.340;2023-05-20T14:01:00;16.40;;;14.73;;
2061;SDS011;11070;51.336;12.340;2023-05-20T14:03:27;17.80;;;15.93;;
2061;SDS011;11070;51.336;12.340;2023-05-20T14:05:53;17.23;;;15.40;;
2061;SDS011;11070;51.336;12.340;2023-05-20T14:08:20;17.33;;;15.63;;
2061;SDS011;11070;51.336;12.340;2023-05-20T14:10:46;16.63;;;14.93;;
2061;SDS011;11070;51.336;12.340;2023-05-20T14:13:11;17.90;;;16.10;;
2061;SDS011;11070;51.336;12.340;2023-05-20T14:15:37;16.77;;;15.17;;
2061;SDS011;11070;51.336;12.340;2023-05-20T14:18:03;17.13;;;15.30;;
2061;SDS011;11070;51.336;12.340;2023-05-20T14:20:28;16.70;;;14.83;;
2061;SDS011;11070;51.336;12.340;2023-05-20T14:22:54;19.53;;;16.10;;
2061;SDS011;11070;51.336;12.340;2023-05-20T14:25:20;17.60;;;15.70;;
2061;SDS011;11070;51.336;12.340;2023-05-20T14:27:45;17.27;;;15.57;;
2061;SDS011;11070;51.336;12.340;2023-05-20T14:30:11;16.87;;;15.10;;
2061;SDS011;11070;51.336;12.340;2023-05-20T14:32:37;16.50;;;14.70;;
2061;SDS011;11070;51.336;12.340;2023-05-20T14:35:03;16.03;;;13.73;;